createdAt,value
2023-04-03T00:08:14.098Z,1.89
2023-04-03T00:24:04.359Z,1.85
2023-04-03T00:39:52.179Z,1.79
2023-04-03T00:47:27.422Z,1.74
2023-04-03T00:55:15.371Z,1.78
2023-04-03T01:03:06.097Z,1.76
2023-04-03T01:11:07.051Z,1.68
2023-04-03T01:26:34.209Z,1.63
2023-04-03T01:34:36.129Z,1.59
2023-04-03T01:42:28.248Z,1.54
2023-04-03T01:57:57.552Z,1.27
2023-04-03T02:06:14.456Z,1.15
2023-04-03T02:13:52.269Z,1.10
2023-04-03T02:21:55.418Z,1.04
2023-04-03T02:37:20.887Z,1.04
2023-04-03T02:45:03.359Z,1.07
2023-04-03T02:52:42.800Z,0.98
2023-04-03T03:00:35.241Z,0.79
2023-04-03T03:16:42.870Z,0.50
2023-04-03T03:32:12.368Z,0.38
2023-04-03T03:39:52.132Z,0.34
2023-04-03T03:55:56.333Z,0.24
2023-04-03T04:03:39.276Z,0.24
2023-04-03T04:11:19.680Z,0.23
2023-04-03T04:19:58.473Z,0.19
2023-04-03T04:28:09.529Z,0.14
2023-04-03T04:36:00.999Z,0.14
2023-04-03T04:43:49.249Z,0.24
2023-04-03T04:52:07.418Z,0.26
2023-04-03T05:00:13.528Z,0.25
2023-04-03T05:07:58.559Z,0.29
2023-04-03T05:16:09.835Z,0.24
2023-04-03T05:23:52.466Z,0.20
2023-04-03T05:31:47.677Z,0.26
2023-04-03T05:40:12.995Z,0.32
2023-04-03T05:56:42.454Z,0.60
2023-04-03T06:21:14.476Z,1.15
2023-04-03T06:28:54.122Z,1.32
2023-04-03T06:36:50.031Z,1.52
2023-04-03T06:45:00.302Z,1.80
2023-04-03T06:53:04.686Z,2.03
2023-04-03T07:16:50.577Z,2.52
2023-04-03T07:32:45.110Z,2.85
2023-04-03T07:41:13.565Z,3.22
2023-04-03T07:58:00.860Z,3.14
2023-04-03T08:06:15.904Z,3.24
2023-04-03T08:14:11.244Z,3.93
2023-04-03T08:31:03.981Z,3.95
2023-04-03T08:38:55.743Z,3.81
2023-04-03T08:55:17.700Z,4.38
2023-04-03T09:11:31.541Z,4.98
2023-04-03T09:19:57.119Z,4.84
2023-04-03T09:36:01.924Z,5.92
2023-04-03T09:44:18.208Z,5.64
2023-04-03T09:52:41.799Z,5.55
2023-04-03T10:00:44.582Z,5.59
2023-04-03T10:08:35.547Z,5.31
2023-04-03T10:16:19.855Z,5.66
2023-04-03T10:24:00.349Z,5.51
2023-04-03T10:31:47.145Z,5.28
2023-04-03T10:39:31.861Z,5.24
2023-04-03T10:47:18.782Z,5.33
2023-04-03T10:55:03.793Z,5.38
2023-04-03T11:02:41.695Z,5.32
2023-04-03T11:10:25.302Z,5.55
2023-04-03T11:18:04.495Z,5.53
2023-04-03T11:25:41.892Z,5.76
2023-04-03T11:33:33.667Z,5.76
2023-04-03T11:41:09.570Z,5.75
2023-04-03T11:48:57.582Z,5.70
2023-04-03T11:56:34.703Z,5.68
2023-04-03T12:04:17.012Z,5.60
2023-04-03T12:11:51.770Z,5.54
2023-04-03T12:19:42.581Z,5.35
2023-04-03T12:27:30.348Z,5.51
2023-04-03T12:35:25.626Z,5.57
2023-04-03T12:43:37.257Z,5.30
2023-04-03T12:51:18.678Z,5.35
2023-04-03T12:58:53.914Z,5.41
2023-04-03T13:14:27.334Z,5.34
2023-04-03T13:22:07.799Z,5.48
2023-04-03T13:29:42.594Z,5.42
2023-04-03T13:37:26.119Z,5.35
2023-04-03T13:45:18.371Z,5.36
2023-04-03T13:53:13.885Z,5.07
2023-04-03T14:00:52.028Z,5.13
2023-04-03T14:08:41.767Z,5.02
2023-04-03T14:16:22.955Z,5.07
2023-04-03T14:23:58.597Z,5.10
2023-04-03T14:31:33.813Z,5.10
2023-04-03T14:39:10.875Z,5.14
2023-04-03T14:46:56.349Z,5.10
2023-04-03T14:54:32.472Z,5.01
2023-04-03T15:02:27.763Z,5.07
2023-04-03T15:10:07.038Z,5.27
2023-04-03T15:17:41.456Z,5.41
2023-04-03T15:25:16.761Z,5.25
2023-04-03T15:32:51.207Z,5.13
2023-04-03T15:40:26.679Z,5.11
2023-04-03T15:48:00.892Z,5.06
2023-04-03T15:55:38.333Z,4.94
2023-04-03T16:03:14.654Z,4.86
2023-04-03T16:10:49.968Z,4.87
2023-04-03T16:18:23.868Z,4.83
2023-04-03T16:25:59.081Z,4.76
2023-04-03T16:33:33.212Z,4.66
2023-04-03T16:41:08.508Z,4.60
2023-04-03T16:48:42.741Z,4.50
2023-04-03T16:56:18.374Z,4.46
2023-04-03T17:03:52.336Z,4.54
2023-04-03T17:11:28.824Z,4.55
2023-04-03T17:19:02.782Z,4.47
2023-04-03T17:26:38.694Z,4.42
2023-04-03T17:34:12.996Z,4.34
2023-04-03T17:41:49.564Z,4.31
2023-04-03T17:49:23.266Z,4.24
2023-04-03T17:56:59.094Z,4.20
2023-04-03T18:04:33.035Z,4.14
2023-04-03T18:12:09.940Z,4.10
2023-04-03T18:19:43.791Z,4.09
2023-04-03T18:35:14.061Z,3.95
2023-04-03T18:42:49.562Z,3.91
2023-04-03T18:50:23.952Z,3.90
2023-04-03T18:57:59.590Z,3.87
2023-04-03T19:05:33.764Z,3.75
2023-04-03T19:13:09.390Z,3.68
2023-04-03T19:20:43.585Z,3.63
2023-04-03T19:28:18.854Z,3.59
2023-04-03T19:35:53.122Z,3.54
2023-04-03T19:43:29.464Z,3.45
2023-04-03T19:51:04.662Z,3.43
2023-04-03T19:58:41.374Z,3.34
2023-04-03T20:06:15.921Z,3.34
2023-04-03T20:13:52.028Z,3.34
2023-04-03T20:21:29.799Z,3.34
2023-04-03T20:29:05.667Z,3.31
2023-04-03T20:36:39.990Z,3.28
2023-04-03T20:44:18.470Z,3.24
2023-04-03T20:51:52.612Z,3.19
2023-04-03T20:59:27.859Z,3.04
2023-04-03T21:07:40.070Z,3.00
2023-04-03T21:15:47.378Z,2.93
2023-04-03T21:23:23.927Z,2.92
2023-04-03T21:30:57.715Z,2.88
2023-04-03T21:38:35.132Z,2.77
2023-04-03T21:46:09.128Z,2.68
2023-04-03T21:53:44.895Z,2.53
2023-04-03T22:01:19.844Z,2.41
2023-04-03T22:08:56.912Z,2.44
2023-04-03T22:16:30.820Z,2.44
2023-04-03T22:24:06.538Z,2.32
2023-04-03T22:31:41.728Z,2.20
2023-04-03T22:39:16.956Z,2.08
2023-04-03T22:46:51.967Z,2.08
2023-04-03T22:54:27.137Z,2.05
2023-04-03T23:02:01.309Z,1.98
2023-04-03T23:09:36.544Z,1.91
2023-04-03T23:17:10.386Z,1.80
2023-04-03T23:24:45.854Z,1.78
2023-04-03T23:32:19.766Z,1.73
2023-04-03T23:39:54.905Z,1.61
2023-04-03T23:47:28.862Z,1.63
2023-04-03T23:55:04.511Z,1.55
